Time;durP1;ratioP1;P1;durP2;ratioP2;P2;SDS_P1;SDS_P2;PMS_P1;PMS_P2;Temp;Humidity;BMP_temperature;BMP_pressure;BME280_temperature;BME280_humidity;BME280_pressure;Samples;Min_cycle;Max_cycle;Signal;HPM_P1;HPM_P2
2024/01/14 00:00:49;;;;;;;15.10;5.27;;;;;;;-145.69;62.09;52476.06;5094427;28;20572;-80
2024/01/14 00:03:15;;;;;;;18.57;5.43;;;;;;;-145.69;61.49;52452.31;5094174;28;20259;-80
2024/01/14 00:05:41;;;;;;;14.97;6.07;;;;;;;-145.69;60.97;52509.75;5094535;28;20210;-79
2024/01/14 00:08:09;;;;;;;18.63;6.47;;;;;;;-145.69;61.11;52474.09;5094225;28;20202;-80
2024/01/14 00:10:36;;;;;;;18.33;6.90;;;;;;;-145.69;61.31;52446.38;5094115;28;20202;-81
2024/01/14 00:13:02;;;;;;;17.90;6.03;;;;;;;-145.69;61.81;52444.38;5094268;28;20198;-80
2024/01/14 00:15:29;;;;;;;24.53;7.43;;;;;;;-145.69;61.44;52424.59;5094240;28;20202;-80
2024/01/14 00:17:55;;;;;;;16.73;5.67;;;;;;;-145.69;61.94;52460.22;5093253;28;20194;-80
2024/01/14 00:20:22;;;;;;;15.63;6.20;;;;;;;-145.69;61.94;52452.31;5093534;28;20221;-80
2024/01/14 00:22:48;;;;;;;15.77;4.97;;;;;;;-145.69;62.29;52442.41;5093894;28;20221;-79
2024/01/14 00:25:19;;;;;;;17.57;5.27;;;;;;;-145.69;62.44;52464.19;5093990;28;20194;-79
2024/01/14 00:27:45;;;;;;;12.07;5.33;;;;;;;-145.69;62.05;52454.28;5093995;28;20204;-80
2024/01/14 00:30:12;;;;;;;10.90;4.37;;;;;;;-145.69;60.85;52450.31;5093486;28;20209;-80
2024/01/14 00:32:38;;;;;;;14.83;5.63;;;;;;;-145.69;61.40;52430.53;5093652;28;20977;-79
2024/01/14 00:35:06;;;;;;;15.67;5.17;;;;;;;-145.69;61.45;52456.28;5093340;28;20645;-79
2024/01/14 00:37:32;;;;;;;14.00;4.53;;;;;;;-145.69;61.08;52450.31;5093703;28;20263;-80
2024/01/14 00:39:58;;;;;;;11.23;4.83;;;;;;;-145.69;61.12;52424.59;5092634;28;20206;-79
2024/01/14 00:42:26;;;;;;;16.10;5.70;;;;;;;-145.69;61.76;52448.34;5093376;28;20233;-79
2024/01/14 00:44:52;;;;;;;17.00;5.20;;;;;;;-145.69;61.32;52478.06;5093666;28;20259;-78
2024/01/14 00:47:19;;;;;;;9.70;4.47;;;;;;;-145.69;60.82;52464.19;5093527;28;20668;-79
2024/01/14 00:49:45;;;;;;;14.43;5.10;;;;;;;-145.69;60.21;52497.84;5093348;28;20198;-80
2024/01/14 00:52:12;;;;;;;14.13;5.23;;;;;;;-145.69;60.82;52458.25;5093616;28;20565;-79
2024/01/14 00:54:38;;;;;;;12.60;4.37;;;;;;;-145.69;60.71;52472.13;5093369;28;20263;-79
2024/01/14 00:57:05;;;;;;;11.27;4.53;;;;;;;-145.69;61.22;52452.31;5093612;28;20198;-80
2024/01/14 00:59:32;;;;;;;14.77;4.93;;;;;;;-145.69;61.04;52408.75;5093249;28;20588;-79
2024/01/14 01:01:59;;;;;;;14.63;4.20;;;;;;;-145.69;61.19;52452.31;5093070;28;20222;-79
2024/01/14 01:04:25;;;;;;;12.47;4.80;;;;;;;-145.69;61.10;52485.97;5093390;28;20206;-79
2024/01/14 01:06:52;;;;;;;11.73;4.63;;;;;;;-145.69;61.21;52462.22;5092920;28;20281;-80
2024/01/14 01:09:18;;;;;;;9.73;4.90;;;;;;;-145.69;60.46;52476.06;5093273;28;20209;-81
2024/01/14 01:11:45;;;;;;;13.83;5.20;;;;;;;-145.69;60.86;52464.19;5093200;28;20201;-81
2024/01/14 01:14:14;;;;;;;14.47;4.60;;;;;;;-145.69;60.87;52454.28;5093096;28;20224;-81
2024/01/14 01:16:41;;;;;;;13.20;4.33;;;;;;;-145.69;60.99;52485.97;5092027;28;20668;-80
2024/01/14 01:19:08;;;;;;;9.83;3.80;;;;;;;-145.69;61.79;52509.75;5093186;28;20213;-81
2024/01/14 01:21:34;;;;;;;10.97;4.20;;;;;;;-145.69;61.92;52432.50;5093051;28;20226;-80
2024/01/14 01:24:01;;;;;;;11.43;4.13;;;;;;;-145.69;60.85;52416.66;5092930;28;20221;-80
2024/01/14 01:26:27;;;;;;;10.67;3.93;;;;;;;-145.69;61.44;52476.06;5092999;28;20291;-81
2024/01/14 01:28:54;;;;;;;10.87;3.33;;;;;;;-145.69;60.81;52474.09;5093750;28;20586;-80
2024/01/14 01:31:20;;;;;;;10.87;3.07;;;;;;;-145.69;60.61;52462.22;5092976;28;20198;-80
2024/01/14 01:33:48;;;;;;;8.73;3.40;;;;;;;-145.69;61.08;52466.16;5092824;28;20201;-80
2024/01/14 01:36:14;;;;;;;12.60;4.50;;;;;;;-145.69;61.24;52448.34;5093086;28;20205;-81
2024/01/14 01:38:41;;;;;;;12.10;4.33;;;;;;;-145.69;60.56;52466.16;5092755;28;20190;-80
2024/01/14 01:41:07;;;;;;;14.20;4.93;;;;;;;-145.69;61.09;52487.97;5092570;28;20716;-80
2024/01/14 01:43:34;;;;;;;11.97;4.30;;;;;;;-145.69;60.81;52464.19;5093144;28;20210;-80
2024/01/14 01:46:00;;;;;;;15.20;5.70;;;;;;;-145.69;60.80;52476.06;5092993;28;20202;-81
2024/01/14 01:48:27;;;;;;;14.37;5.80;;;;;;;-145.69;60.14;52482.00;5092943;28;20202;-80
2024/01/14 01:50:56;;;;;;;21.10;6.83;;;;;;;-145.69;60.94;52493.91;5092883;28;20209;-81
2024/01/14 01:53:24;;;;;;;20.20;6.70;;;;;;;-145.69;61.09;52448.34;5096989;28;20240;-81
2024/01/14 01:55:52;;;;;;;12.57;5.20;;;;;;;-145.69;60.44;52474.09;5096697;28;20209;-79
2024/01/14 01:58:18;;;;;;;12.67;5.23;;;;;;;-145.69;60.58;52480.03;5095183;28;20202;-81
2024/01/14 02:00:45;;;;;;;9.13;4.40;;;;;;;-145.69;60.42;52448.34;5095631;28;20197;-81
2024/01/14 02:03:12;;;;;;;11.77;4.63;;;;;;;-145.69;61.24;52472.13;5096584;28;20610;-81
2024/01/14 02:05:40;;;;;;;11.53;3.90;;;;;;;-145.69;60.21;52474.09;5096195;28;20228;-79
2024/01/14 02:08:08;;;;;;;18.07;5.50;;;;;;;-145.69;60.46;52442.41;5090065;28;20286;-79
2024/01/14 02:10:35;;;;;;;10.57;4.27;;;;;;;-145.69;61.02;52462.22;5075871;28;20542;-80
2024/01/14 02:13:02;;;;;;;9.93;4.27;;;;;;;-145.69;60.24;52472.13;5076024;28;20207;-79
2024/01/14 02:15:29;;;;;;;19.60;4.73;;;;;;;-145.69;60.74;52478.06;5076213;28;20260;-80
2024/01/14 02:17:55;;;;;;;7.30;3.50;;;;;;;-145.69;61.35;52480.03;5075964;28;20653;-80
2024/01/14 02:20:22;;;;;;;7.73;2.93;;;;;;;-145.69;60.74;52472.13;5076078;28;20207;-79
2024/01/14 02:22:50;;;;;;;6.63;3.03;;;;;;;-145.69;60.86;52448.34;5075571;28;20623;-79
2024/01/14 02:25:20;;;;;;;5.37;2.70;;;;;;;-145.69;60.23;52444.38;5075942;28;20206;-79
2024/01/14 02:27:47;;;;;;;6.57;2.60;;;;;;;-145.69;60.26;52452.31;5076017;28;20667;-79
2024/01/14 02:30:14;;;;;;;7.60;3.03;;;;;;;-145.69;60.49;52482.00;5075903;28;20199;-79
2024/01/14 02:32:41;;;;;;;6.50;3.00;;;;;;;-145.69;60.51;52444.38;5092198;28;20198;-80
2024/01/14 02:35:08;;;;;;;8.47;2.73;;;;;;;-145.69;60.61;52446.38;5095731;28;20198;-80
2024/01/14 02:37:37;;;;;;;5.43;2.63;;;;;;;-145.69;60.24;52476.06;5095979;28;20209;-79
2024/01/14 02:40:04;;;;;;;11.40;3.93;;;;;;;-145.69;60.50;52468.16;5096409;28;20202;-80
2024/01/14 02:42:32;;;;;;;11.87;4.17;;;;;;;-145.69;59.51;52444.38;5096341;28;20226;-80
2024/01/14 02:44:59;;;;;;;10.63;3.47;;;;;;;-145.69;60.00;52503.81;5096256;28;20205;-80
2024/01/14 02:47:25;;;;;;;7.20;3.30;;;;;;;-145.69;59.72;52499.84;5095692;28;20675;-80
2024/01/14 02:49:51;;;;;;;6.80;2.93;;;;;;;-145.69;60.65;52442.41;5095806;28;20205;-80
2024/01/14 02:52:18;;;;;;;9.10;3.50;;;;;;;-145.69;60.24;52452.31;5095809;28;20652;-80
2024/01/14 02:54:44;;;;;;;6.20;2.60;;;;;;;-145.69;59.68;52495.88;5095633;28;20198;-80
2024/01/14 02:57:11;;;;;;;8.63;2.93;;;;;;;-145.69;60.51;52456.28;5095590;28;20213;-81
2024/01/14 02:59:38;;;;;;;5.97;2.40;;;;;;;-145.69;61.34;52472.13;5095342;28;20233;-80
2024/01/14 03:02:05;;;;;;;7.37;2.67;;;;;;;-145.69;61.63;52458.25;5095458;28;20260;-82
2024/01/14 03:04:32;;;;;;;3.87;1.93;;;;;;;-145.69;60.86;52448.34;5094431;28;20284;-82
2024/01/14 03:06:59;;;;;;;4.50;2.13;;;;;;;-145.69;60.95;52440.44;5095429;28;20245;-81
2024/01/14 03:09:25;;;;;;;3.37;1.80;;;;;;;-145.69;61.55;52460.22;5095938;28;20203;-81
2024/01/14 03:11:51;;;;;;;4.37;1.90;;;;;;;-145.69;61.62;52450.31;5095218;28;20648;-81
2024/01/14 03:14:18;;;;;;;2.23;1.60;;;;;;;-145.69;61.29;52472.13;5095506;28;20210;-81
2024/01/14 03:16:46;;;;;;;4.13;1.90;;;;;;;-145.69;61.06;52476.06;5095268;28;20205;-81
2024/01/14 03:19:12;;;;;;;4.70;2.13;;;;;;;-145.69;61.73;52432.50;5095195;28;20206;-80
2024/01/14 03:21:38;;;;;;;4.00;1.60;;;;;;;-145.69;62.30;52420.63;5095136;28;20338;-79
2024/01/14 03:24:04;;;;;;;2.13;1.60;;;;;;;-145.69;62.37;52450.31;5095113;28;20198;-81
2024/01/14 03:26:30;;;;;;;3.40;1.33;;;;;;;-145.69;62.29;52464.19;5095032;28;20552;-80
2024/01/14 03:28:57;;;;;;;2.90;1.87;;;;;;;-145.69;62.26;52464.19;5094949;28;20206;-81
2024/01/14 03:31:24;;;;;;;3.50;1.60;;;;;;;-145.69;62.44;52458.25;5095070;28;20198;-80
2024/01/14 03:33:51;;;;;;;4.97;1.70;;;;;;;-145.69;62.67;52470.13;5094892;28;20194;-80
2024/01/14 03:36:18;;;;;;;1.77;1.30;;;;;;;-145.69;62.38;52430.53;5094922;28;20206;-80
2024/01/14 03:38:44;;;;;;;3.90;1.93;;;;;;;-145.69;62.35;52480.03;5094858;28;20225;-80
2024/01/14 03:41:11;;;;;;;3.57;1.43;;;;;;;-145.69;61.45;52464.19;5094508;28;20198;-80
2024/01/14 03:43:38;;;;;;;1.40;1.20;;;;;;;-145.69;61.79;52442.41;5094744;28;20248;-80
2024/01/14 03:46:04;;;;;;;1.73;1.50;;;;;;;-145.69;61.59;52444.38;5094667;28;20205;-80
2024/01/14 03:48:31;;;;;;;4.60;1.43;;;;;;;-145.69;61.67;52418.63;5094805;28;20209;-80
2024/01/14 03:50:59;;;;;;;2.40;1.67;;;;;;;-145.69;62.19;52466.16;5094860;28;20235;-81
2024/01/14 03:53:25;;;;;;;2.77;1.50;;;;;;;-145.69;63.05;52408.75;5094436;28;20564;-82
2024/01/14 03:55:51;;;;;;;3.10;1.60;;;;;;;-145.69;62.76;52456.28;5094655;28;20206;-80
2024/01/14 03:58:18;;;;;;;3.97;1.40;;;;;;;-145.69;62.39;52487.97;5094155;28;20221;-80
2024/01/14 04:00:44;;;;;;;1.30;1.20;;;;;;;-145.69;62.59;52476.06;5094624;28;20205;-81
2024/01/14 04:03:11;;;;;;;2.10;1.30;;;;;;;-145.69;63.06;52416.66;5094539;28;20226;-81
2024/01/14 04:05:37;;;;;;;1.80;1.53;;;;;;;-145.69;62.74;52462.22;5094592;28;20297;-81
2024/01/14 04:08:06;;;;;;;3.07;1.60;;;;;;;-145.69;62.24;52444.38;5093922;28;20197;-80
2024/01/14 04:10:33;;;;;;;2.20;1.17;;;;;;;-145.69;62.10;52452.31;5094404;28;20285;-81
2024/01/14 04:12:59;;;;;;;2.00;1.40;;;;;;;-145.69;61.38;52434.47;5079486;28;20726;-81
2024/01/14 04:15:25;;;;;;;3.40;1.30;;;;;;;-145.69;61.01;52420.63;5073862;28;20210;-81
2024/01/14 04:17:52;;;;;;;4.77;1.70;;;;;;;-145.69;61.55;52444.38;5074118;28;20199;-81
2024/01/14 04:20:18;;;;;;;3.33;1.47;;;;;;;-145.69;61.44;52440.44;5073702;28;20657;-81
2024/01/14 04:22:45;;;;;;;2.87;1.50;;;;;;;-145.69;61.72;52478.06;5073664;28;20234;-80
2024/01/14 04:25:12;;;;;;;1.90;1.30;;;;;;;-145.69;61.06;52464.19;5079313;28;20202;-80
2024/01/14 04:27:39;;;;;;;4.00;1.47;;;;;;;-145.69;62.15;52448.34;5093642;28;20564;-81
2024/01/14 04:30:07;;;;;;;1.50;1.40;;;;;;;-145.69;61.31;52452.31;5094000;28;20272;-81
2024/01/14 04:32:34;;;;;;;2.00;1.33;;;;;;;-145.69;61.04;52468.16;5094048;28;20676;-80
2024/01/14 04:35:00;;;;;;;2.10;1.37;;;;;;;-145.69;60.93;52468.16;5093615;28;20206;-81
2024/01/14 04:37:27;;;;;;;3.50;1.30;;;;;;;-145.69;61.56;52464.19;5094032;28;20226;-81
2024/01/14 04:39:55;;;;;;;2.67;1.30;;;;;;;-145.69;61.00;52480.03;5093874;28;20193;-80
2024/01/14 04:42:23;;;;;;;1.83;1.60;;;;;;;-145.69;60.73;52456.28;5093279;28;20312;-80
2024/01/14 04:44:49;;;;;;;1.77;1.47;;;;;;;-145.69;60.16;52418.63;5093722;28;20194;-80
2024/01/14 04:47:15;;;;;;;10.90;4.13;;;;;;;-145.69;59.91;52452.31;5094104;28;20229;-80
2024/01/14 04:49:42;;;;;;;23.20;7.87;;;;;;;-145.69;59.22;52422.59;5093740;28;20198;-80
2024/01/14 04:52:08;;;;;;;23.23;7.93;;;;;;;-145.69;58.38;52456.28;5093643;28;20202;-80
2024/01/14 04:54:35;;;;;;;22.30;7.50;;;;;;;-145.69;58.51;52436.47;5093643;28;20556;-81
2024/01/14 04:57:01;;;;;;;26.10;8.87;;;;;;;-145.69;59.09;52495.88;5093331;28;20202;-80
2024/01/14 04:59:29;;;;;;;23.87;8.63;;;;;;;-145.69;58.37;52456.28;5093321;28;20237;-80
2024/01/14 05:01:56;;;;;;;24.77;7.37;;;;;;;-145.69;58.56;52456.28;5093169;28;20218;-80
2024/01/14 05:04:22;;;;;;;28.30;8.67;;;;;;;-145.69;58.38;52450.31;5093550;28;20251;-80
2024/01/14 05:06:48;;;;;;;20.60;7.87;;;;;;;-145.69;58.97;52434.47;5093409;28;20646;-80
2024/01/14 05:09:15;;;;;;;28.30;9.10;;;;;;;-145.69;58.36;52478.06;5093472;28;20194;-80
2024/01/14 05:11:41;;;;;;;20.40;7.00;;;;;;;-145.69;58.58;52454.28;5093255;28;20194;-82
2024/01/14 05:14:08;;;;;;;31.70;8.67;;;;;;;-145.69;58.33;52456.28;5093708;28;20213;-81
2024/01/14 05:16:35;;;;;;;28.73;8.53;;;;;;;-145.69;58.52;52493.91;5093629;28;20271;-80
2024/01/14 05:19:02;;;;;;;23.57;8.43;;;;;;;-145.69;58.65;52428.53;5093486;28;20202;-80
2024/01/14 05:21:28;;;;;;;26.97;8.40;;;;;;;-145.69;58.90;52458.25;5093597;28;20206;-81
2024/01/14 05:23:55;;;;;;;23.20;8.70;;;;;;;-145.69;59.00;52452.31;5092995;28;20626;-80
2024/01/14 05:26:24;;;;;;;24.17;8.20;;;;;;;-145.69;59.15;52507.75;5092353;28;20225;-81
2024/01/14 05:28:50;;;;;;;22.47;8.23;;;;;;;-145.69;58.72;52456.28;5093192;28;20260;-80
2024/01/14 05:31:17;;;;;;;21.53;7.97;;;;;;;-145.69;58.18;52426.56;5093160;28;20205;-79
2024/01/14 05:33:45;;;;;;;25.60;7.57;;;;;;;-145.69;58.63;52446.38;5092973;28;20201;-80
2024/01/14 05:36:11;;;;;;;21.60;7.03;;;;;;;-145.69;58.50;52444.38;5092928;28;20210;-80
2024/01/14 05:38:38;;;;;;;26.67;8.27;;;;;;;-145.69;58.59;52460.22;5092777;28;20549;-80
2024/01/14 05:41:04;;;;;;;20.97;7.57;;;;;;;-145.69;58.58;52458.25;5092966;28;20649;-81
2024/01/14 05:43:31;;;;;;;25.77;7.97;;;;;;;-145.69;57.91;52462.22;5092678;28;20225;-80
2024/01/14 05:45:57;;;;;;;26.50;7.97;;;;;;;-145.69;57.90;52493.91;5092701;28;20202;-80
2024/01/14 05:48:24;;;;;;;20.70;7.63;;;;;;;-145.69;57.79;52493.91;5093075;28;20569;-80
2024/01/14 05:50:51;;;;;;;29.93;8.10;;;;;;;-145.69;58.63;52458.25;5092835;28;20206;-81
2024/01/14 05:53:19;;;;;;;27.33;9.23;;;;;;;-145.69;57.59;52462.22;5092683;28;20212;-80
2024/01/14 05:55:45;;;;;;;23.20;8.67;;;;;;;-145.69;58.33;52476.06;5092804;28;20206;-78
2024/01/14 05:58:11;;;;;;;25.70;8.40;;;;;;;-145.69;57.96;52466.16;5092642;28;20553;-81
2024/01/14 06:00:38;;;;;;;21.23;8.07;;;;;;;-145.69;58.08;52466.16;5092688;28;20202;-80
2024/01/14 06:03:05;;;;;;;34.00;8.97;;;;;;;-145.69;57.48;52464.19;5092282;28;20225;-80
2024/01/14 06:05:31;;;;;;;29.80;9.03;;;;;;;-145.69;58.17;52476.06;5092653;28;20203;-80
2024/01/14 06:07:59;;;;;;;27.60;9.27;;;;;;;-145.69;58.28;52456.28;5091904;28;20209;-80
2024/01/14 06:10:26;;;;;;;29.87;10.33;;;;;;;-145.69;57.70;52472.13;5092703;28;20259;-80
2024/01/14 06:12:52;;;;;;;35.70;11.47;;;;;;;-145.69;57.92;52450.31;5092762;28;20202;-81
2024/01/14 06:15:19;;;;;;;31.40;11.10;;;;;;;-145.69;57.53;52448.34;5092733;28;20201;-79
2024/01/14 06:17:45;;;;;;;30.17;8.97;;;;;;;-145.69;58.31;52484.00;5092603;28;20198;-80
2024/01/14 06:20:12;;;;;;;26.97;8.87;;;;;;;-145.69;58.08;52485.97;5092247;28;20205;-79
2024/01/14 06:22:39;;;;;;;26.23;9.33;;;;;;;-145.69;57.73;52476.06;5092636;28;20222;-79
2024/01/14 06:25:08;;;;;;;23.37;8.70;;;;;;;-145.69;57.68;52432.50;5092247;28;20201;-79
2024/01/14 06:27:34;;;;;;;27.53;9.90;;;;;;;-145.69;58.13;52489.94;5092740;28;20202;-79
2024/01/14 06:30:04;;;;;;;25.33;8.97;;;;;;;-145.69;58.13;52468.16;5092461;28;20212;-78
2024/01/14 06:32:32;;;;;;;29.93;9.87;;;;;;;-145.69;58.12;52464.19;5092090;28;20198;-79
2024/01/14 06:34:59;;;;;;;27.33;9.37;;;;;;;-145.69;57.89;52474.09;5092302;28;20205;-80
2024/01/14 06:37:25;;;;;;;32.90;10.03;;;;;;;-145.69;57.94;52480.03;5092223;28;20240;-79
2024/01/14 06:39:51;;;;;;;30.33;10.23;;;;;;;-145.69;57.56;52468.16;5095316;28;20202;-79
2024/01/14 06:42:20;;;;;;;28.80;10.23;;;;;;;-145.69;57.49;52480.03;5095683;28;20244;-79
2024/01/14 06:44:46;;;;;;;28.93;10.33;;;;;;;-145.69;57.50;52450.31;5096190;28;20201;-79
2024/01/14 06:47:13;;;;;;;31.10;9.57;;;;;;;-145.69;57.57;52448.34;5095717;28;20680;-79
2024/01/14 06:49:40;;;;;;;31.67;10.53;;;;;;;-145.69;57.30;52466.16;5095807;28;20213;-80
2024/01/14 06:52:06;;;;;;;33.70;10.43;;;;;;;-145.69;57.78;52448.34;5096093;28;20206;-79
2024/01/14 06:54:33;;;;;;;25.50;9.60;;;;;;;-145.69;58.05;52440.44;5095864;28;20684;-80
2024/01/14 06:56:59;;;;;;;30.03;10.80;;;;;;;-145.69;57.32;52499.84;5095614;28;20205;-79
2024/01/14 06:59:27;;;;;;;29.27;10.60;;;;;;;-145.69;58.05;52456.28;5095672;28;20797;-80
2024/01/14 07:01:53;;;;;;;37.53;10.90;;;;;;;-145.69;57.82;52466.16;5095782;28;20202;-79
2024/01/14 07:04:20;;;;;;;33.93;10.40;;;;;;;-145.69;58.68;52466.16;5095268;28;20573;-80
2024/01/14 07:06:46;;;;;;;30.07;9.90;;;;;;;-145.69;58.65;52487.97;5095772;28;20205;-79
2024/01/14 07:09:13;;;;;;;36.07;10.60;;;;;;;-145.69;57.48;52491.91;5095210;28;20594;-80
2024/01/14 07:11:39;;;;;;;32.93;10.30;;;;;;;-145.69;58.15;52489.94;5095438;28;20229;-79
2024/01/14 07:14:06;;;;;;;26.97;9.73;;;;;;;-145.69;57.55;52468.16;5095414;28;20247;-79
2024/01/14 07:16:35;;;;;;;31.00;9.40;;;;;;;-145.69;58.15;52505.78;5095056;28;20679;-79
2024/01/14 07:19:01;;;;;;;34.43;9.20;;;;;;;-145.69;58.13;52474.09;5095219;28;20201;-79
2024/01/14 07:21:28;;;;;;;29.50;9.67;;;;;;;-145.69;58.08;52460.22;5094880;28;20205;-79
2024/01/14 07:23:55;;;;;;;29.10;9.73;;;;;;;-145.69;57.32;52507.75;5095479;28;20234;-80
2024/01/14 07:26:21;;;;;;;26.57;9.40;;;;;;;-145.69;57.80;52464.19;5096168;28;20587;-80
2024/01/14 07:28:48;;;;;;;31.60;10.10;;;;;;;-145.69;57.33;52464.19;5095869;28;20205;-79
2024/01/14 07:31:20;;;;;;;30.80;10.03;;;;;;;-145.69;57.42;52470.13;5094608;28;20205;-80
2024/01/14 07:33:48;;;;;;;30.20;9.87;;;;;;;-145.69;57.13;52422.59;5094687;28;20660;-81
2024/01/14 07:36:15;;;;;;;37.40;10.50;;;;;;;-145.69;57.70;52491.91;5095038;28;20252;-80
2024/01/14 07:38:41;;;;;;;33.60;11.63;;;;;;;-145.69;57.80;52434.47;5094754;28;20229;-80
2024/01/14 07:41:08;;;;;;;37.03;11.83;;;;;;;-145.69;57.58;52484.00;5095032;28;20573;-80
2024/01/14 07:43:34;;;;;;;39.60;13.30;;;;;;;-145.69;57.88;52458.25;5094833;28;20673;-80
2024/01/14 07:46:01;;;;;;;41.13;13.23;;;;;;;-145.69;57.83;52499.84;5095205;28;20308;-81
2024/01/14 07:48:27;;;;;;;44.67;14.97;;;;;;;-145.69;58.51;52485.97;5094742;28;20198;-80
2024/01/14 07:50:55;;;;;;;42.63;13.93;;;;;;;-145.69;57.88;52480.03;5094277;28;20202;-80
2024/01/14 07:53:22;;;;;;;38.93;13.07;;;;;;;-145.69;57.62;52487.97;5096758;28;20206;-80
2024/01/14 07:55:49;;;;;;;36.50;13.57;;;;;;;-145.69;57.96;52454.28;5096722;28;20549;-82
2024/01/14 07:58:15;;;;;;;35.53;11.77;;;;;;;-145.69;58.45;52456.28;5096389;28;20560;-81
2024/01/14 08:00:42;;;;;;;38.83;13.90;;;;;;;-145.69;58.00;52448.34;5095838;28;20247;-80
2024/01/14 08:03:09;;;;;;;35.20;13.17;;;;;;;-145.69;58.40;52450.31;5095545;28;20306;-81
2024/01/14 08:05:36;;;;;;;47.87;14.40;;;;;;;-145.69;58.93;52480.03;5096051;28;20198;-80
2024/01/14 08:08:04;;;;;;;37.33;13.60;;;;;;;-145.69;57.91;52444.38;5096101;28;20198;-80
2024/01/14 08:10:31;;;;;;;36.83;12.97;;;;;;;-145.69;57.83;52456.28;5105740;28;20670;-81
2024/01/14 08:12:58;;;;;;;29.83;11.50;;;;;;;-145.69;58.48;52470.13;5116180;28;20246;-79
2024/01/14 08:15:25;;;;;;;32.67;11.77;;;;;;;-145.69;58.28;52460.22;5115410;28;20201;-80
2024/01/14 08:17:53;;;;;;;33.57;11.37;;;;;;;-145.69;58.66;52438.44;5112033;28;20202;-80
2024/01/14 08:20:20;;;;;;;39.27;12.40;;;;;;;-145.69;59.04;52438.44;5094835;28;20240;-81
2024/01/14 08:22:48;;;;;;;35.77;10.83;;;;;;;-145.69;58.84;52464.19;5094905;28;20228;-81
2024/01/14 08:25:20;;;;;;;36.97;10.80;;;;;;;-145.69;59.04;52440.44;5095095;28;20202;-80
2024/01/14 08:27:47;;;;;;;29.93;9.57;;;;;;;-145.69;58.42;52446.38;5095139;28;20534;-81
2024/01/14 08:30:14;;;;;;;30.73;10.57;;;;;;;-145.69;58.22;52440.44;5094828;28;20194;-80
2024/01/14 08:32:44;;;;;;;29.53;9.53;;;;;;;-145.69;58.58;52404.78;5094912;28;20372;-80
2024/01/14 08:35:11;;;;;;;25.03;10.13;;;;;;;-145.69;59.00;52448.34;5094560;28;20247;-80
2024/01/14 08:37:46;;;;;;;31.20;10.47;;;;;;;-145.69;58.93;52450.31;5094657;28;20220;-81
2024/01/14 08:40:21;;;;;;;29.53;9.77;;;;;;;-145.69;58.69;52480.03;5094598;28;20185;-80
2024/01/14 08:42:51;;;;;;;30.27;12.00;;;;;;;-145.69;58.66;52442.41;5094669;28;20197;-80
2024/01/14 08:45:18;;;;;;;31.43;10.83;;;;;;;-145.69;59.26;52448.34;5094594;28;20244;-81
2024/01/14 08:47:46;;;;;;;25.67;9.73;;;;;;;-145.69;59.65;52464.19;5094457;28;20204;-81
2024/01/14 08:50:15;;;;;;;23.53;9.10;;;;;;;-145.69;59.56;52416.66;5093986;28;20556;-81
2024/01/14 08:52:42;;;;;;;30.17;11.03;;;;;;;-145.69;59.42;52466.16;5095005;28;20587;-81
2024/01/14 08:55:09;;;;;;;35.00;10.20;;;;;;;-145.69;59.69;52416.66;5094219;28;20268;-81
2024/01/14 08:57:44;;;;;;;28.47;9.90;;;;;;;-145.69;59.79;52438.44;5094213;28;20290;-81
2024/01/14 09:00:13;;;;;;;26.43;9.90;;;;;;;-145.69;59.88;52460.22;5093602;28;20265;-81
2024/01/14 09:02:40;;;;;;;29.57;9.50;;;;;;;-145.69;59.96;52426.56;5092948;28;20202;-80
2024/01/14 09:05:08;;;;;;;27.60;9.23;;;;;;;-145.69;59.76;52436.47;5093431;28;20321;-81
2024/01/14 09:07:34;;;;;;;31.10;10.80;;;;;;;-145.69;59.46;52444.38;5093645;28;20198;-81
2024/01/14 09:10:01;;;;;;;30.77;10.37;;;;;;;-145.69;59.54;52432.50;5093822;28;20255;-81
2024/01/14 09:12:28;;;;;;;27.33;10.23;;;;;;;-145.69;60.01;52416.66;5093609;28;20230;-81
2024/01/14 09:14:54;;;;;;;31.60;11.13;;;;;;;-145.69;60.25;52430.53;5093393;28;20205;-82
2024/01/14 09:17:23;;;;;;;33.27;11.87;;;;;;;-145.69;60.17;52446.38;5093628;28;20259;-81
2024/01/14 09:19:52;;;;;;;27.63;9.83;;;;;;;-145.69;60.45;52434.47;5093527;28;20305;-81
2024/01/14 09:22:18;;;;;;;25.10;9.80;;;;;;;-145.69;60.61;52440.44;5093362;28;20568;-81
2024/01/14 09:24:45;;;;;;;31.23;10.80;;;;;;;-145.69;61.02;52400.81;5092946;28;20225;-81
2024/01/14 09:27:14;;;;;;;26.77;9.57;;;;;;;-145.69;60.48;52442.41;5093980;28;20206;-81
2024/01/14 09:29:41;;;;;;;30.30;9.23;;;;;;;-145.69;61.07;52460.22;5092733;28;20202;-81
2024/01/14 09:32:08;;;;;;;24.83;8.63;;;;;;;-145.69;60.79;52432.50;5092980;28;20198;-81
2024/01/14 09:34:36;;;;;;;25.17;8.33;;;;;;;-145.69;60.88;52450.31;5092990;28;20550;-81
2024/01/14 09:37:04;;;;;;;21.03;7.83;;;;;;;-145.69;60.42;52460.22;5091747;28;20240;-81
2024/01/14 09:39:33;;;;;;;29.50;9.53;;;;;;;-145.69;60.06;52485.97;5093018;28;20198;-81
2024/01/14 09:42:08;;;;;;;21.43;7.53;;;;;;;-145.69;59.89;52400.81;5092863;28;20228;-81
2024/01/14 09:44:34;;;;;;;20.63;7.97;;;;;;;-145.69;60.81;52438.44;5092815;28;20256;-81
2024/01/14 09:47:03;;;;;;;21.20;7.47;;;;;;;-145.69;60.91;52420.63;5093179;28;20288;-81
2024/01/14 09:49:34;;;;;;;22.60;7.90;;;;;;;-145.69;60.61;52493.91;5092730;28;20202;-82
2024/01/14 09:52:05;;;;;;;25.07;10.50;;;;;;;-145.69;60.68;52402.78;5092994;28;20205;-81
2024/01/14 09:54:33;;;;;;;30.03;10.80;;;;;;;-145.69;59.90;52416.66;5092716;28;20679;-81
2024/01/14 09:57:06;;;;;;;33.10;12.27;;;;;;;-145.69;60.57;52406.75;5092618;28;20198;-81
2024/01/14 09:59:35;;;;;;;33.97;12.27;;;;;;;-145.69;60.26;52428.53;5092721;28;20662;-81
2024/01/14 10:02:03;;;;;;;28.50;12.70;;;;;;;-145.69;60.67;52414.69;5089869;28;20645;-82
2024/01/14 10:04:32;;;;;;;29.30;11.30;;;;;;;-145.69;60.35;52452.31;5072094;28;20226;-82
2024/01/14 10:06:59;;;;;;;30.77;11.73;;;;;;;-145.69;60.71;52444.38;5083550;28;20211;-82
2024/01/14 10:09:40;;;;;;;26.13;10.30;;;;;;;-145.69;60.22;52448.34;5092705;28;20292;-81
2024/01/14 10:12:09;;;;;;;23.80;9.93;;;;;;;-145.69;60.47;52448.34;5093332;28;20206;-82
2024/01/14 10:14:36;;;;;;;31.10;11.37;;;;;;;-145.69;60.81;52426.56;5098122;28;20194;-81
2024/01/14 10:17:03;;;;;;;36.87;13.53;;;;;;;-145.69;61.05;52428.53;5097429;28;20198;-82
2024/01/14 10:19:30;;;;;;;42.20;17.65;;;;;;;-145.69;61.58;52410.72;5095888;28;20907;-82
2024/01/14 10:21:57;;;;;;;37.13;14.30;;;;;;;-145.69;61.06;52424.59;5098000;28;20202;-81
2024/01/14 10:24:27;;;;;;;31.37;12.93;;;;;;;-145.69;61.07;52424.59;5096574;28;20591;-82
2024/01/14 10:26:55;;;;;;;33.53;11.67;;;;;;;-145.69;60.72;52440.44;5098358;28;20206;-81
2024/01/14 10:29:22;;;;;;;31.07;12.30;;;;;;;-145.69;60.64;52383.00;5098677;28;20661;-82
2024/01/14 10:31:49;;;;;;;26.33;11.60;;;;;;;-145.69;59.45;52420.63;5099789;28;20289;-80
2024/01/14 10:34:17;;;;;;;38.67;14.53;;;;;;;-145.69;59.93;52416.66;5099907;28;20255;-80
2024/01/14 10:36:44;;;;;;;47.00;15.87;;;;;;;-145.69;60.36;52434.47;5095415;28;20205;-80
2024/01/14 10:39:12;;;;;;;45.70;16.87;;;;;;;-145.69;59.66;52392.91;5096441;28;20198;-80
2024/01/14 10:41:41;;;;;;;38.00;16.40;;;;;;;-145.69;59.79;52424.59;5096214;28;20206;-80
2024/01/14 10:44:09;;;;;;;43.33;15.27;;;;;;;-145.69;59.09;52452.31;5096403;28;20229;-80
2024/01/14 10:46:38;;;;;;;36.50;14.30;;;;;;;-145.69;60.24;52432.50;5096738;28;20194;-80
2024/01/14 10:49:07;;;;;;;38.97;15.37;;;;;;;-145.69;60.23;52384.97;5096637;28;20198;-80
2024/01/14 10:51:38;;;;;;;39.53;16.53;;;;;;;-145.69;60.34;52416.66;5097438;28;20248;-80
2024/01/14 10:54:14;;;;;;;37.73;14.47;;;;;;;-145.69;60.59;52412.69;5098762;28;20845;-80
2024/01/14 10:56:49;;;;;;;36.57;13.67;;;;;;;-145.69;60.25;52414.69;5101949;28;20206;-79
2024/01/14 10:59:23;;;;;;;35.33;12.77;;;;;;;-145.69;58.96;52392.91;5101210;28;20225;-80
2024/01/14 11:01:55;;;;;;;38.77;13.67;;;;;;;-145.69;59.66;52450.31;5105431;28;20611;-81
2024/01/14 11:04:22;;;;;;;35.17;14.00;;;;;;;-145.69;60.06;52424.59;5105221;28;20316;-80
2024/01/14 11:06:55;;;;;;;33.00;12.03;;;;;;;-145.69;59.51;52379.03;5103491;28;20202;-80
2024/01/14 11:09:22;;;;;;;27.70;11.40;;;;;;;-145.69;59.79;52426.56;5105085;28;20206;-80